Time;durP1;ratioP1;P1;durP2;ratioP2;P2;SDS_P1;SDS_P2;PMS_P1;PMS_P2;Temp;Humidity;BMP_temperature;BMP_pressure;BME280_temperature;BME280_humidity;BME280_pressure;Samples;Min_cycle;Max_cycle;Signal;HPM_P1;HPM_P2
2021/07/07 00:00:12;;;;;;;;;;;27.60;54.90;;;;;;5135155;27;19972;-58
2021/07/07 00:02:39;;;;;;;;;;;27.60;54.90;;;;;;5135203;27;20268;-58
2021/07/07 00:05:06;;;;;;;;;;;27.60;54.90;;;;;;5133921;27;19924;-58
2021/07/07 00:07:34;;;;;;;;;;;27.60;55.20;;;;;;5136165;27;20447;-58
2021/07/07 00:10:02;;;;;;;;;;;27.60;54.90;;;;;;5136157;27;19924;-58
2021/07/07 00:12:29;;;;;;;;;;;27.60;54.90;;;;;;5134704;27;19923;-58
2021/07/07 00:14:56;;;;;;;;;;;27.60;54.90;;;;;;5128871;27;19923;-58
2021/07/07 00:17:23;;;;;;;;;;;27.50;54.90;;;;;;5120534;27;19992;-58
2021/07/07 00:19:50;;;;;;;;;;;27.60;55.00;;;;;;5123852;27;19962;-57
2021/07/07 00:22:18;;;;;;;;;;;27.50;54.90;;;;;;5134544;27;20390;-57
2021/07/07 00:24:45;;;;;;;;;;;27.50;54.90;;;;;;5136967;27;19923;-58
2021/07/07 00:27:13;;;;;;;;;;;27.50;54.90;;;;;;5136237;27;20261;-58
2021/07/07 00:29:40;;;;;;;;;;;27.60;55.00;;;;;;5136892;27;19945;-58
2021/07/07 00:32:07;;;;;;;;;;;27.60;55.00;;;;;;5135917;27;20006;-58
2021/07/07 00:34:34;;;;;;;;;;;27.50;55.00;;;;;;5118773;27;20010;-58
2021/07/07 00:37:02;;;;;;;;;;;27.50;55.00;;;;;;5136583;27;19923;-58
2021/07/07 00:39:29;;;;;;;;;;;27.50;55.00;;;;;;5134909;27;19923;-59
2021/07/07 00:41:56;;;;;;;;;;;27.50;55.00;;;;;;5136764;27;19923;-58
2021/07/07 00:44:23;;;;;;;;;;;27.50;55.00;;;;;;5134987;27;19923;-58
2021/07/07 00:46:50;;;;;;;;;;;27.50;55.00;;;;;;5135030;27;20444;-58
2021/07/07 00:49:17;;;;;;;;;;;27.50;55.00;;;;;;5134236;27;20425;-58
2021/07/07 00:51:44;;;;;;;;;;;27.50;55.10;;;;;;5132708;27;19956;-58
2021/07/07 00:54:13;;;;;;;;;;;27.50;55.10;;;;;;5134687;27;19927;-58
2021/07/07 00:56:40;;;;;;;;;;;27.50;55.00;;;;;;5133934;27;20594;-58
2021/07/07 00:59:07;;;;;;;;;;;27.50;55.10;;;;;;5122086;27;19923;-58
2021/07/07 01:01:34;;;;;;;;;;;27.50;55.10;;;;;;5117542;27;20391;-58
2021/07/07 01:04:02;;;;;;;;;;;27.50;55.10;;;;;;5119688;27;20017;-58
2021/07/07 01:06:29;;;;;;;;;;;27.50;55.10;;;;;;5124480;27;20333;-58
2021/07/07 01:08:56;;;;;;;;;;;27.50;55.10;;;;;;5134973;27;19923;-58
2021/07/07 01:11:23;;;;;;;;;;;27.50;55.10;;;;;;5132363;27;20398;-58
2021/07/07 01:13:50;;;;;;;;;;;27.50;55.10;;;;;;5134039;27;19954;-58
2021/07/07 01:16:17;;;;;;;;;;;27.50;55.10;;;;;;5130391;27;19924;-58
2021/07/07 01:18:44;;;;;;;;;;;27.50;55.10;;;;;;5120692;27;19935;-58
2021/07/07 01:21:11;;;;;;;;;;;27.50;55.10;;;;;;5134532;27;19939;-58
2021/07/07 01:23:38;;;;;;;;;;;27.50;55.10;;;;;;5134289;27;19931;-58
2021/07/07 01:26:05;;;;;;;;;;;27.50;55.10;;;;;;5134362;27;19949;-58
2021/07/07 01:28:32;;;;;;;;;;;27.50;55.10;;;;;;5134871;27;19983;-58
2021/07/07 01:31:02;;;;;;;;;;;27.50;55.10;;;;;;5117722;27;20424;-58
2021/07/07 01:33:29;;;;;;;;;;;27.50;55.10;;;;;;5134156;27;19923;-58
2021/07/07 01:35:56;;;;;;;;;;;27.50;55.10;;;;;;5128858;27;19924;-58
2021/07/07 01:38:23;;;;;;;;;;;27.50;55.10;;;;;;5134868;27;19923;-58
2021/07/07 01:40:50;;;;;;;;;;;27.50;55.10;;;;;;5119076;27;19924;-58
2021/07/07 01:43:17;;;;;;;;;;;27.50;55.10;;;;;;5133771;27;20256;-58
2021/07/07 01:45:44;;;;;;;;;;;27.50;55.10;;;;;;5134540;27;19928;-58
2021/07/07 01:48:11;;;;;;;;;;;27.50;55.10;;;;;;5132757;27;19927;-59
2021/07/07 01:50:38;;;;;;;;;;;27.50;55.10;;;;;;5133037;27;19930;-58
2021/07/07 01:53:05;;;;;;;;;;;27.50;55.10;;;;;;5134070;27;19923;-58
2021/07/07 01:55:32;;;;;;;;;;;27.50;55.10;;;;;;5123895;27;19924;-58
2021/07/07 01:57:59;;;;;;;;;;;27.50;55.10;;;;;;5117433;27;19971;-58
2021/07/07 02:00:27;;;;;;;;;;;27.50;55.10;;;;;;5123906;27;20336;-58
2021/07/07 02:02:55;;;;;;;;;;;27.50;55.10;;;;;;5132943;27;19927;-58
2021/07/07 02:05:25;;;;;;;;;;;27.50;55.10;;;;;;5134258;27;19995;-58
2021/07/07 02:07:52;;;;;;;;;;;27.50;55.10;;;;;;5127150;27;19971;-58
2021/07/07 02:10:19;;;;;;;;;;;27.50;55.10;;;;;;5123334;27;19973;-58
2021/07/07 02:12:46;;;;;;;;;;;27.50;55.10;;;;;;5132624;27;19974;-57
2021/07/07 02:15:18;;;;;;;;;;;27.50;55.10;;;;;;5129529;27;19975;-58
2021/07/07 02:17:45;;;;;;;;;;;27.50;55.10;;;;;;5118720;27;19972;-57
2021/07/07 02:20:13;;;;;;;;;;;27.50;55.10;;;;;;5132537;27;20008;-57
2021/07/07 02:22:41;;;;;;;;;;;27.50;55.10;;;;;;5132357;27;19977;-58
2021/07/07 02:25:10;;;;;;;;;;;27.50;55.10;;;;;;5133804;27;19976;-58
2021/07/07 02:27:37;;;;;;;;;;;27.50;55.10;;;;;;5131041;27;19953;-58
2021/07/07 02:30:09;;;;;;;;;;;27.50;55.10;;;;;;5131823;27;19923;-58
2021/07/07 02:32:38;;;;;;;;;;;27.50;55.10;;;;;;5114289;28;19932;-58
2021/07/07 02:35:06;;;;;;;;;;;27.50;55.20;;;;;;5132096;27;19969;-58
2021/07/07 02:37:34;;;;;;;;;;;27.50;55.10;;;;;;5132282;27;20387;-57
2021/07/07 02:40:01;;;;;;;;;;;27.50;55.20;;;;;;5132291;27;19972;-57
2021/07/07 02:42:28;;;;;;;;;;;27.50;55.20;;;;;;5132915;27;20003;-57
2021/07/07 02:44:55;;;;;;;;;;;27.50;55.20;;;;;;5131477;27;20348;-57
2021/07/07 02:47:22;;;;;;;;;;;27.50;55.20;;;;;;5131061;27;20327;-57
2021/07/07 02:49:49;;;;;;;;;;;27.50;55.20;;;;;;5117533;27;19924;-57
2021/07/07 02:52:16;;;;;;;;;;;27.50;55.20;;;;;;5129497;27;19931;-57
2021/07/07 02:54:43;;;;;;;;;;;27.50;55.20;;;;;;5120330;27;19923;-57
2021/07/07 02:57:10;;;;;;;;;;;27.50;55.20;;;;;;5116893;27;20043;-58
2021/07/07 02:59:37;;;;;;;;;;;27.50;55.20;;;;;;5124934;27;19931;-57
2021/07/07 03:02:04;;;;;;;;;;;27.50;55.20;;;;;;5132122;27;20271;-58
2021/07/07 03:04:31;;;;;;;;;;;27.50;55.20;;;;;;5113976;27;20352;-58
2021/07/07 03:06:58;;;;;;;;;;;27.50;55.20;;;;;;5130208;27;20430;-58
2021/07/07 03:09:25;;;;;;;;;;;27.50;55.20;;;;;;5109352;28;20004;-58
2021/07/07 03:11:52;;;;;;;;;;;27.40;55.10;;;;;;5103301;27;19968;-58
2021/07/07 03:14:19;;;;;;;;;;;27.50;55.20;;;;;;5130079;27;19927;-59
2021/07/07 03:16:46;;;;;;;;;;;27.50;55.20;;;;;;5130176;27;20375;-58
2021/07/07 03:19:13;;;;;;;;;;;27.50;55.20;;;;;;5132659;27;19927;-58
2021/07/07 03:21:40;;;;;;;;;;;27.50;55.20;;;;;;5132401;27;19923;-58
2021/07/07 03:24:09;;;;;;;;;;;27.50;55.10;;;;;;5132500;27;19966;-58
2021/07/07 03:26:36;;;;;;;;;;;27.50;55.10;;;;;;5131915;27;19927;-58
2021/07/07 03:29:03;;;;;;;;;;;27.50;55.10;;;;;;5114774;27;19931;-58
2021/07/07 03:31:30;;;;;;;;;;;27.50;55.10;;;;;;5114383;27;20432;-58
2021/07/07 03:33:57;;;;;;;;;;;27.50;55.10;;;;;;5131638;27;20296;-58
2021/07/07 03:36:24;;;;;;;;;;;27.50;55.10;;;;;;5118937;28;20452;-59
2021/07/07 03:38:51;;;;;;;;;;;27.50;55.10;;;;;;5129931;28;19968;-58
2021/07/07 03:41:18;;;;;;;;;;;27.50;55.10;;;;;;5099597;28;19931;-58
2021/07/07 03:43:45;;;;;;;;;;;27.50;55.10;;;;;;5128684;28;20010;-59
2021/07/07 03:46:12;;;;;;;;;;;27.50;55.10;;;;;;5131246;28;20264;-58
2021/07/07 03:48:39;;;;;;;;;;;27.50;55.10;;;;;;5119610;28;19974;-58
2021/07/07 03:51:06;;;;;;;;;;;27.50;55.10;;;;;;5115281;28;19967;-58
2021/07/07 03:53:33;;;;;;;;;;;27.50;55.10;;;;;;5125888;28;19924;-58
2021/07/07 03:56:00;;;;;;;;;;;27.50;55.10;;;;;;5131615;28;19965;-58
2021/07/07 03:58:27;;;;;;;;;;;27.50;55.10;;;;;;5132087;28;19976;-58
2021/07/07 04:00:54;;;;;;;;;;;27.50;55.10;;;;;;5129973;28;19928;-58
2021/07/07 04:03:21;;;;;;;;;;;27.50;55.10;;;;;;5129896;28;20326;-58
2021/07/07 04:05:48;;;;;;;;;;;27.50;55.00;;;;;;5133129;28;19923;-58
2021/07/07 04:08:15;;;;;;;;;;;27.50;55.00;;;;;;5129880;28;19927;-58
2021/07/07 04:10:41;;;;;;;;;;;27.50;55.00;;;;;;5128058;28;19945;-58
2021/07/07 04:13:08;;;;;;;;;;;27.50;54.90;;;;;;5117553;28;20332;-58
2021/07/07 04:15:35;;;;;;;;;;;27.60;55.00;;;;;;5129620;28;20383;-58
2021/07/07 04:18:04;;;;;;;;;;;27.60;55.00;;;;;;5130868;28;19924;-58
2021/07/07 04:20:31;;;;;;;;;;;27.60;55.00;;;;;;5129596;28;19924;-58
2021/07/07 04:22:58;;;;;;;;;;;27.60;55.00;;;;;;5112839;28;19936;-59
2021/07/07 04:25:25;;;;;;;;;;;27.60;55.00;;;;;;5133039;28;19927;-58
2021/07/07 04:27:52;;;;;;;;;;;27.60;55.00;;;;;;5130857;28;19927;-59
2021/07/07 04:30:20;;;;;;;;;;;27.60;55.00;;;;;;5130668;28;19923;-59
2021/07/07 04:32:47;;;;;;;;;;;27.60;54.90;;;;;;5113819;28;19924;-58
2021/07/07 04:35:16;;;;;;;;;;;27.60;55.00;;;;;;5114264;28;19931;-58
2021/07/07 04:37:44;;;;;;;;;;;27.60;54.90;;;;;;5127786;28;19924;-58
2021/07/07 04:40:14;;;;;;;;;;;27.60;54.90;;;;;;5117540;28;20037;-58
2021/07/07 04:42:41;;;;;;;;;;;27.60;54.90;;;;;;5131581;27;19972;-58
2021/07/07 04:45:11;;;;;;;;;;;27.60;54.90;;;;;;5133086;27;19927;-58
2021/07/07 04:47:39;;;;;;;;;;;27.60;54.90;;;;;;5135976;27;19930;-58
2021/07/07 04:50:10;;;;;;;;;;;27.60;54.80;;;;;;5135478;27;20519;-58
2021/07/07 04:52:37;;;;;;;;;;;27.70;54.80;;;;;;5134587;27;20013;-58
2021/07/07 04:55:06;;;;;;;;;;;27.60;54.70;;;;;;5136285;27;19928;-58
2021/07/07 04:57:42;;;;;;;;;;;27.70;54.80;;;;;;5134233;27;19927;-58
2021/07/07 05:00:14;;;;;;;;;;;27.70;54.70;;;;;;5133904;27;19930;-58
2021/07/07 05:02:43;;;;;;;;;;;27.70;55.30;;;;;;5133871;27;20145;-58
2021/07/07 05:05:12;;;;;;;;;;;27.70;54.70;;;;;;5134076;27;19966;-58
2021/07/07 05:07:39;;;;;;;;;;;27.70;54.70;;;;;;5133788;27;19927;-58
2021/07/07 05:10:07;;;;;;;;;;;27.70;54.60;;;;;;5134338;27;19923;-58
2021/07/07 05:12:35;;;;;;;;;;;27.70;54.60;;;;;;5130163;27;19924;-58
2021/07/07 05:15:03;;;;;;;;;;;27.70;54.60;;;;;;5123318;27;19923;-59
2021/07/07 05:17:30;;;;;;;;;;;27.70;54.60;;;;;;5132618;27;20483;-59
2021/07/07 05:19:58;;;;;;;;;;;27.70;54.60;;;;;;5135138;27;19923;-58
2021/07/07 05:22:26;;;;;;;;;;;27.70;54.60;;;;;;5134954;27;19927;-59
2021/07/07 05:24:53;;;;;;;;;;;27.70;54.60;;;;;;5133194;27;19923;-59
2021/07/07 05:27:20;;;;;;;;;;;27.70;54.60;;;;;;5116670;27;19935;-59
2021/07/07 05:29:47;;;;;;;;;;;27.70;54.60;;;;;;5132884;27;20060;-57
2021/07/07 05:32:20;;;;;;;;;;;27.70;54.60;;;;;;5136080;27;19973;-58
2021/07/07 05:34:52;;;;;;;;;;;27.80;54.70;;;;;;5117357;27;19977;-57
2021/07/07 05:37:23;;;;;;;;;;;27.80;54.70;;;;;;5116023;27;19924;-57
2021/07/07 05:39:51;;;;;;;;;;;27.80;54.60;;;;;;5135880;27;19975;-58
2021/07/07 05:42:20;;;;;;;;;;;27.80;54.70;;;;;;5133951;27;19923;-59
2021/07/07 05:44:52;;;;;;;;;;;27.80;54.60;;;;;;5133203;27;19923;-58
2021/07/07 05:47:21;;;;;;;;;;;27.80;54.60;;;;;;5135119;27;20443;-58
2021/07/07 05:49:49;;;;;;;;;;;27.80;54.60;;;;;;5117374;27;20290;-59
2021/07/07 05:52:15;;;;;;;;;;;27.80;54.60;;;;;;5130520;27;19973;-57
2021/07/07 05:54:43;;;;;;;;;;;27.80;54.60;;;;;;5132368;27;19973;-59
2021/07/07 05:57:09;;;;;;;;;;;27.80;54.60;;;;;;5131880;27;20002;-59
2021/07/07 05:59:36;;;;;;;;;;;27.80;54.50;;;;;;5131445;27;19923;-59
2021/07/07 06:02:03;;;;;;;;;;;27.80;54.50;;;;;;5132808;27;19976;-59
2021/07/07 06:04:30;;;;;;;;;;;27.80;54.60;;;;;;5132313;27;19930;-58
2021/07/07 06:06:57;;;;;;;;;;;27.80;54.50;;;;;;5134864;27;20260;-56
2021/07/07 06:09:24;;;;;;;;;;;27.80;54.50;;;;;;5133694;27;19924;-59
2021/07/07 06:11:52;;;;;;;;;;;27.80;54.50;;;;;;5131337;27;19923;-58
2021/07/07 06:14:19;;;;;;;;;;;27.80;54.50;;;;;;5132621;27;19927;-58
2021/07/07 06:16:46;;;;;;;;;;;27.80;54.50;;;;;;5132515;27;19939;-58
2021/07/07 06:19:13;;;;;;;;;;;27.80;54.50;;;;;;5130985;27;20431;-59
2021/07/07 06:21:40;;;;;;;;;;;27.90;54.50;;;;;;5130587;27;19946;-58
2021/07/07 06:24:07;;;;;;;;;;;27.80;55.00;;;;;;5117782;27;19924;-58
2021/07/07 06:26:34;;;;;;;;;;;27.90;54.50;;;;;;5119054;27;19923;-58
2021/07/07 06:29:04;;;;;;;;;;;27.90;54.50;;;;;;5131451;27;19928;-58
2021/07/07 06:31:35;;;;;;;;;;;27.90;54.50;;;;;;5132780;27;19930;-58
2021/07/07 06:34:05;;;;;;;;;;;27.90;54.50;;;;;;5131972;27;19993;-58
2021/07/07 06:36:32;;;;;;;;;;;27.90;54.50;;;;;;5122693;27;19927;-58
2021/07/07 06:38:59;;;;;;;;;;;27.90;54.40;;;;;;5115102;28;19973;-56
2021/07/07 06:41:26;;;;;;;;;;;27.90;54.50;;;;;;5113530;28;19963;-59
2021/07/07 06:43:53;;;;;;;;;;;27.90;54.50;;;;;;5134399;27;19976;-57
2021/07/07 06:46:20;;;;;;;;;;;27.90;54.50;;;;;;5117766;27;19973;-58
2021/07/07 06:48:47;;;;;;;;;;;27.90;54.50;;;;;;5132542;27;19923;-58
2021/07/07 06:51:14;;;;;;;;;;;27.90;54.50;;;;;;5133175;27;19979;-59
2021/07/07 06:53:41;;;;;;;;;;;27.90;54.50;;;;;;5130275;27;19923;-58
2021/07/07 06:56:08;;;;;;;;;;;27.90;54.50;;;;;;5131783;27;19924;-56
2021/07/07 06:58:35;;;;;;;;;;;27.90;54.50;;;;;;5131199;27;20363;-57
2021/07/07 07:01:02;;;;;;;;;;;27.90;54.50;;;;;;5132024;27;19923;-57
2021/07/07 07:03:29;;;;;;;;;;;27.80;54.50;;;;;;5130505;27;19923;-58
2021/07/07 07:05:57;;;;;;;;;;;27.90;54.50;;;;;;5133989;27;20339;-57
2021/07/07 07:08:24;;;;;;;;;;;27.90;54.50;;;;;;5122703;27;20344;-57
2021/07/07 07:10:51;;;;;;;;;;;27.90;54.50;;;;;;5121074;27;20420;-56
2021/07/07 07:13:18;;;;;;;;;;;27.90;54.50;;;;;;5127102;27;20332;-57
2021/07/07 07:15:47;;;;;;;;;;;27.90;54.50;;;;;;5121916;27;20295;-58
2021/07/07 07:18:15;;;;;;;;;;;27.80;54.50;;;;;;5131437;27;19984;-57
2021/07/07 07:20:42;;;;;;;;;;;27.80;54.50;;;;;;5132888;27;20281;-57
2021/07/07 07:23:09;;;;;;;;;;;27.80;54.60;;;;;;5131643;27;20290;-57
2021/07/07 07:25:36;;;;;;;;;;;27.80;54.60;;;;;;5111308;27;19931;-57
2021/07/07 07:28:04;;;;;;;;;;;27.80;54.70;;;;;;5131030;27;20336;-57
2021/07/07 07:30:31;;;;;;;;;;;27.80;54.70;;;;;;5132158;27;20391;-57
2021/07/07 07:32:58;;;;;;;;;;;27.80;54.70;;;;;;5133188;27;20316;-56
2021/07/07 07:35:25;;;;;;;;;;;27.80;54.70;;;;;;5130645;27;19932;-57
2021/07/07 07:38:04;;;;;;;;;;;27.80;54.70;;;;;;5132827;27;19973;-55
2021/07/07 07:40:35;;;;;;;;;;;27.80;54.80;;;;;;5131489;27;19924;-57
2021/07/07 07:43:03;;;;;;;;;;;27.80;54.80;;;;;;5132716;27;20390;-57
2021/07/07 07:45:30;;;;;;;;;;;27.80;54.70;;;;;;5131104;28;19971;-57
2021/07/07 07:47:57;;;;;;;;;;;27.80;54.80;;;;;;5114658;28;20268;-58
2021/07/07 07:50:25;;;;;;;;;;;27.80;54.80;;;;;;5130236;28;20420;-58
2021/07/07 07:52:52;;;;;;;;;;;27.80;54.80;;;;;;5131067;28;19923;-59
2021/07/07 07:55:20;;;;;;;;;;;27.80;54.80;;;;;;5130668;28;20264;-59
2021/07/07 07:57:48;;;;;;;;;;;27.80;54.80;;;;;;5130533;28;19968;-58
2021/07/07 08:00:20;;;;;;;;;;;27.90;54.90;;;;;;5131038;28;19927;-59
2021/07/07 08:02:48;;;;;;;;;;;27.90;55.00;;;;;;5115345;28;19935;-58
2021/07/07 08:05:17;;;;;;;;;;;27.90;54.90;;;;;;5130592;28;19927;-58
2021/07/07 08:07:44;;;;;;;;;;;27.90;54.90;;;;;;5121686;28;19969;-58
2021/07/07 08:10:13;;;;;;;;;;;27.90;55.00;;;;;;5113836;28;19927;-58
2021/07/07 08:12:40;;;;;;;;;;;27.90;55.00;;;;;;5124754;28;19960;-58
2021/07/07 08:15:07;;;;;;;;;;;27.90;55.00;;;;;;5116050;27;20366;-58
2021/07/07 08:17:34;;;;;;;;;;;27.90;55.00;;;;;;5133657;27;19972;-59
2021/07/07 08:20:03;;;;;;;;;;;27.90;55.00;;;;;;5136384;27;20294;-58
2021/07/07 08:22:30;;;;;;;;;;;27.90;55.00;;;;;;5132743;27;19924;-58
2021/07/07 08:24:57;;;;;;;;;;;27.90;55.00;;;;;;5133754;27;19923;-59
2021/07/07 08:27:24;;;;;;;;;;;27.90;55.10;;;;;;5133083;27;19972;-58
2021/07/07 08:29:51;;;;;;;;;;;27.90;55.10;;;;;;5135936;27;20312;-58
2021/07/07 08:32:19;;;;;;;;;;;27.90;55.10;;;;;;5133747;27;19977;-58
2021/07/07 08:34:47;;;;;;;;;;;27.90;55.10;;;;;;5133732;27;20342;-58
2021/07/07 08:37:15;;;;;;;;;;;27.90;55.20;;;;;;5118009;27;19927;-58
2021/07/07 08:39:42;;;;;;;;;;;27.90;55.20;;;;;;5135230;27;19924;-58
2021/07/07 08:42:10;;;;;;;;;;;27.90;55.20;;;;;;5133726;27;19929;-57
2021/07/07 08:44:37;;;;;;;;;;;27.90;55.20;;;;;;5135067;27;19976;-58
2021/07/07 08:47:05;;;;;;;;;;;27.90;55.30;;;;;;5133860;27;19930;-58
2021/07/07 08:49:32;;;;;;;;;;;27.90;55.30;;;;;;5133503;27;20022;-51
2021/07/07 08:52:00;;;;;;;;;;;27.90;55.40;;;;;;5117996;27;19930;-49
2021/07/07 08:54:29;;;;;;;;;;;27.90;55.30;;;;;;5134521;27;19930;-51
2021/07/07 08:56:56;;;;;;;;;;;27.90;55.30;;;;;;5135309;27;19972;-52
2021/07/07 08:59:24;;;;;;;;;;;27.90;55.30;;;;;;5132834;27;20540;-50
2021/07/07 09:02:01;;;;;;;;;;;28.00;55.30;;;;;;5132649;27;20367;-57
2021/07/07 09:04:29;;;;;;;;;;;28.00;55.20;;;;;;5133686;27;20386;-57
2021/07/07 09:06:58;;;;;;;;;;;28.10;55.20;;;;;;5132562;27;19975;-59
2021/07/07 09:09:35;;;;;;;;;;;28.10;55.10;;;;;;5134084;27;19974;-58
2021/07/07 09:12:15;;;;;;;;;;;28.20;55.10;;;;;;5134868;27;19963;-57
2021/07/07 09:14:43;;;;;;;;;;;28.20;55.00;;;;;;5133694;27;19923;-58
2021/07/07 09:17:11;;;;;;;;;;;28.20;54.90;;;;;;5133921;27;20002;-58
2021/07/07 09:19:39;;;;;;;;;;;28.20;55.50;;;;;;5133415;27;19927;-58
2021/07/07 09:22:10;;;;;;;;;;;28.20;54.80;;;;;;5134129;27;19924;-58
2021/07/07 09:24:39;;;;;;;;;;;28.30;55.40;;;;;;5135536;27;19927;-58
2021/07/07 09:27:07;;;;;;;;;;;28.30;54.70;;;;;;5134834;27;20435;-59
2021/07/07 09:29:37;;;;;;;;;;;28.30;54.70;;;;;;5133069;27;19923;-59
2021/07/07 09:32:11;;;;;;;;;;;28.30;54.70;;;;;;5133244;27;19970;-58
2021/07/07 09:34:39;;;;;;;;;;;28.30;54.70;;;;;;5135897;27;20282;-57
2021/07/07 09:37:09;;;;;;;;;;;28.30;54.80;;;;;;5126981;27;20335;-57
2021/07/07 09:39:36;;;;;;;;;;;28.30;54.70;;;;;;5134431;27;19974;-56
2021/07/07 09:42:03;;;;;;;;;;;28.30;54.70;;;;;;5134697;27;19996;-57
2021/07/07 09:44:31;;;;;;;;;;;28.40;54.60;;;;;;5133475;27;19924;-58
2021/07/07 09:46:59;;;;;;;;;;;28.40;54.50;;;;;;5131941;27;19923;-58
2021/07/07 09:49:27;;;;;;;;;;;28.50;54.50;;;;;;5131473;27;20015;-58
2021/07/07 09:51:54;;;;;;;;;;;28.50;54.30;;;;;;5118180;27;19923;-58
2021/07/07 09:54:22;;;;;;;;;;;28.60;54.30;;;;;;5135034;27;20001;-58
2021/07/07 09:56:49;;;;;;;;;;;28.60;54.10;;;;;;5132994;27;19993;-58
2021/07/07 09:59:16;;;;;;;;;;;28.70;54.10;;;;;;5134794;27;20463;-58
2021/07/07 10:01:46;;;;;;;;;;;28.70;54.10;;;;;;5133213;27;20382;-58
2021/07/07 10:04:17;;;;;;;;;;;28.70;54.00;;;;;;5116401;27;19930;-59
2021/07/07 10:06:44;;;;;;;;;;;28.80;53.90;;;;;;5133305;27;19924;-58
2021/07/07 10:09:11;;;;;;;;;;;28.80;53.70;;;;;;5132797;27;19977;-58
2021/07/07 10:11:40;;;;;;;;;;;28.80;53.70;;;;;;5132213;27;20266;-59
2021/07/07 10:14:11;;;;;;;;;;;28.90;53.60;;;;;;5131424;27;19980;-58
2021/07/07 10:16:38;;;;;;;;;;;28.90;53.50;;;;;;5133656;27;19924;-58
2021/07/07 10:19:08;;;;;;;;;;;28.90;53.40;;;;;;5132568;27;19923;-59
2021/07/07 10:21:35;;;;;;;;;;;29.00;53.30;;;;;;5134678;27;19966;-58
2021/07/07 10:24:02;;;;;;;;;;;29.00;53.20;;;;;;5119551;27;19924;-57
2021/07/07 10:26:30;;;;;;;;;;;29.00;53.20;;;;;;5116793;27;19969;-58
2021/07/07 10:28:58;;;;;;;;;;;29.00;53.20;;;;;;5126343;27;19990;-58
2021/07/07 10:31:44;;;;;;;;;;;29.00;53.20;;;;;;5132358;27;19923;-58
2021/07/07 10:34:11;;;;;;;;;;;29.00;53.10;;;;;;5131060;27;20022;-58
2021/07/07 10:36:39;;;;;;;;;;;28.90;53.10;;;;;;5115968;27;19985;-58
2021/07/07 10:39:07;;;;;;;;;;;29.00;53.20;;;;;;5132610;27;20086;-58
2021/07/07 10:41:45;;;;;;;;;;;29.00;53.20;;;;;;5132243;27;19924;-58
2021/07/07 10:44:12;;;;;;;;;;;29.00;53.20;;;;;;5130925;27;19930;-58
2021/07/07 10:47:07;;;;;;;;;;;29.00;53.10;;;;;;5131979;27;19972;-59
2021/07/07 10:49:40;;;;;;;;;;;29.00;53.10;;;;;;5127365;27;19923;-58
2021/07/07 10:52:09;;;;;;;;;;;29.10;53.00;;;;;;5131630;27;19976;-58
2021/07/07 10:54:37;;;;;;;;;;;29.10;53.00;;;;;;5132563;27;19941;-58
2021/07/07 10:57:06;;;;;;;;;;;29.10;53.00;;;;;;5113680;27;19966;-58
2021/07/07 10:59:33;;;;;;;;;;;29.10;53.00;;;;;;5120856;27;20286;-58
2021/07/07 11:02:01;;;;;;;;;;;29.10;52.90;;;;;;5125244;27;19932;-58
2021/07/07 11:04:37;;;;;;;;;;;29.10;52.90;;;;;;5131817;27;20302;-58
2021/07/07 11:07:22;;;;;;;;;;;29.10;52.90;;;;;;5131393;27;19931;-59
2021/07/07 11:09:53;;;;;;;;;;;29.10;53.60;;;;;;5133910;27;19952;-58
2021/07/07 11:12:24;;;;;;;;;;;29.10;52.90;;;;;;5121408;27;19980;-58
2021/07/07 11:15:17;;;;;;;;;;;29.10;53.00;;;;;;5131168;27;19989;-58
2021/07/07 11:17:49;;;;;;;;;;;29.10;53.00;;;;;;5125812;27;20413;-58
2021/07/07 11:20:23;;;;;;;;;;;29.10;53.00;;;;;;5130072;27;19945;-58
2021/07/07 11:23:03;;;;;;;;;;;29.10;53.10;;;;;;5132427;27;19953;-57
2021/07/07 11:25:31;;;;;;;;;;;29.10;53.00;;;;;;5131125;27;19931;-58
2021/07/07 11:27:59;;;;;;;;;;;29.10;53.00;;;;;;5119495;27;20291;-58
2021/07/07 11:30:26;;;;;;;;;;;29.10;53.00;;;;;;5126943;27;19964;-58
2021/07/07 11:32:54;;;;;;;;;;;29.10;53.00;;;;;;5131232;27;19927;-59
2021/07/07 11:35:30;;;;;;;;;;;29.10;53.00;;;;;;5114992;27;19998;-59
2021/07/07 11:37:58;;;;;;;;;;;29.10;53.00;;;;;;5129845;27;19954;-59
2021/07/07 11:40:26;;;;;;;;;;;29.10;53.00;;;;;;5133678;27;19923;-59
2021/07/07 11:42:58;;;;;;;;;;;29.10;53.10;;;;;;5131116;27;19958;-59
2021/07/07 11:45:26;;;;;;;;;;;29.10;53.20;;;;;;5132671;28;20358;-59
2021/07/07 11:47:58;;;;;;;;;;;29.10;53.10;;;;;;5131550;28;19923;-59
2021/07/07 11:50:26;;;;;;;;;;;29.10;53.20;;;;;;5131454;27;20295;-59
2021/07/07 11:52:58;;;;;;;;;;;29.10;53.20;;;;;;5133837;27;20323;-59
2021/07/07 11:55:44;;;;;;;;;;;29.10;53.30;;;;;;5135978;27;19930;-59
2021/07/07 11:58:17;;;;;;;;;;;29.10;53.20;;;;;;5136395;27;20392;-59
2021/07/07 12:00:44;;;;;;;;;;;29.10;53.30;;;;;;5135062;27;19967;-59
2021/07/07 12:03:11;;;;;;;;;;;29.10;53.30;;;;;;5135138;27;19924;-59
2021/07/07 12:06:01;;;;;;;;;;;29.10;53.40;;;;;;5137523;27;19924;-59
2021/07/07 12:08:32;;;;;;;;;;;29.10;53.40;;;;;;5127798;27;19924;-60
2021/07/07 12:11:07;;;;;;;;;;;29.00;53.70;;;;;;5132902;27;20386;-59
2021/07/07 12:13:36;;;;;;;;;;;29.00;53.70;;;;;;5134037;27;19957;-59
2021/07/07 12:16:17;;;;;;;;;;;28.90;53.80;;;;;;5135121;27;20440;-59
2021/07/07 12:18:45;;;;;;;;;;;28.90;53.90;;;;;;5137571;27;19923;-58
2021/07/07 12:21:13;;;;;;;;;;;28.90;53.90;;;;;;5135761;27;19964;-58
2021/07/07 12:23:47;;;;;;;;;;;28.90;53.80;;;;;;5133666;27;19959;-57
2021/07/07 12:26:17;;;;;;;;;;;28.90;53.80;;;;;;5134315;27;20304;-58
2021/07/07 12:28:44;;;;;;;;;;;28.90;53.90;;;;;;5135072;27;19923;-58
2021/07/07 12:31:12;;;;;;;;;;;28.90;53.90;;;;;;5134462;27;19923;-59
2021/07/07 12:33:39;;;;;;;;;;;28.90;53.80;;;;;;5135617;27;19927;-59
2021/07/07 12:36:07;;;;;;;;;;;28.90;53.80;;;;;;5134982;27;19931;-59
2021/07/07 12:38:42;;;;;;;;;;;28.90;53.80;;;;;;5135414;27;19927;-58
2021/07/07 12:41:09;;;;;;;;;;;28.90;53.80;;;;;;5134691;27;19923;-58
2021/07/07 12:43:43;;;;;;;;;;;28.90;53.70;;;;;;5133471;27;20321;-58
2021/07/07 12:46:10;;;;;;;;;;;28.90;53.60;;;;;;5134466;27;19924;-58
2021/07/07 12:48:50;;;;;;;;;;;28.90;53.60;;;;;;5135172;27;19923;-58
2021/07/07 12:51:22;;;;;;;;;;;28.90;53.60;;;;;;5132858;27;19924;-58
2021/07/07 12:53:49;;;;;;;;;;;28.80;53.70;;;;;;5117358;27;20372;-58
2021/07/07 12:56:16;;;;;;;;;;;28.80;53.70;;;;;;5135620;27;19927;-58
2021/07/07 12:58:43;;;;;;;;;;;28.70;54.00;;;;;;5117395;27;19924;-59
2021/07/07 13:01:28;;;;;;;;;;;28.70;54.20;;;;;;5117692;27;19925;-59
2021/07/07 13:03:55;;;;;;;;;;;28.60;54.20;;;;;;5117477;27;19924;-59
2021/07/07 13:06:23;;;;;;;;;;;28.60;54.30;;;;;;5126703;27;19924;-58
2021/07/07 13:08:59;;;;;;;;;;;28.60;54.50;;;;;;5134431;27;19965;-59
2021/07/07 13:11:26;;;;;;;;;;;28.60;54.50;;;;;;5134008;27;20320;-59
2021/07/07 13:13:56;;;;;;;;;;;28.60;54.50;;;;;;5118389;27;20321;-59
2021/07/07 13:16:24;;;;;;;;;;;28.50;54.60;;;;;;5134136;27;19931;-59
2021/07/07 13:19:01;;;;;;;;;;;28.40;54.70;;;;;;5134099;27;19930;-59
2021/07/07 13:21:35;;;;;;;;;;;28.40;54.80;;;;;;5133337;27;19924;-58
2021/07/07 13:24:04;;;;;;;;;;;28.40;54.80;;;;;;5133630;27;19923;-59
2021/07/07 13:26:37;;;;;;;;;;;28.50;54.70;;;;;;5132494;27;19953;-58
2021/07/07 13:29:20;;;;;;;;;;;28.50;54.70;;;;;;5132373;27;19971;-58
2021/07/07 13:32:05;;;;;;;;;;;28.50;54.80;;;;;;5133753;27;19928;-58
2021/07/07 13:34:34;;;;;;;;;;;28.50;54.70;;;;;;5133557;27;19930;-59
2021/07/07 13:37:16;;;;;;;;;;;28.50;54.50;;;;;;5117608;27;19996;-59
2021/07/07 13:39:51;;;;;;;;;;;28.60;54.60;;;;;;5134836;27;20371;-59
2021/07/07 13:42:18;;;;;;;;;;;28.50;54.50;;;;;;5133534;27;19958;-58
2021/07/07 13:44:45;;;;;;;;;;;28.60;54.40;;;;;;5134697;27;19923;-58
2021/07/07 13:47:12;;;;;;;;;;;28.60;54.40;;;;;;5134382;27;19923;-59
2021/07/07 13:49:39;;;;;;;;;;;28.60;54.40;;;;;;5116546;27;19930;-60
2021/07/07 13:52:06;;;;;;;;;;;28.60;54.50;;;;;;5115927;27;20390;-59
2021/07/07 13:54:34;;;;;;;;;;;28.60;54.40;;;;;;5133523;27;19923;-59
2021/07/07 13:57:01;;;;;;;;;;;28.60;54.40;;;;;;5133899;27;19930;-59
2021/07/07 13:59:28;;;;;;;;;;;28.60;54.50;;;;;;5132503;27;19927;-57
2021/07/07 14:01:55;;;;;;;;;;;28.60;54.40;;;;;;5132208;27;20367;-59
2021/07/07 14:04:22;;;;;;;;;;;28.60;54.40;;;;;;5132939;27;19924;-59
2021/07/07 14:06:49;;;;;;;;;;;28.60;54.40;;;;;;5131467;27;19923;-59
2021/07/07 14:09:16;;;;;;;;;;;28.60;54.40;;;;;;5131443;27;19973;-59
2021/07/07 14:11:43;;;;;;;;;;;28.60;54.40;;;;;;5131774;27;19924;-59
2021/07/07 14:14:10;;;;;;;;;;;28.60;54.40;;;;;;5131595;27;19924;-59
2021/07/07 14:16:37;;;;;;;;;;;28.50;54.30;;;;;;5131562;27;19924;-59
2021/07/07 14:19:05;;;;;;;;;;;28.60;54.30;;;;;;5127832;27;19971;-59
2021/07/07 14:21:34;;;;;;;;;;;28.60;54.20;;;;;;5122130;27;19982;-59
2021/07/07 14:24:02;;;;;;;;;;;28.60;54.40;;;;;;5131350;27;20347;-59